Time;durP1;ratioP1;P1;durP2;ratioP2;P2;SDS_P1;SDS_P2;PMS_P1;PMS_P2;Temp;Humidity;BMP_temperature;BMP_pressure;BME280_temperature;BME280_humidity;BME280_pressure;Samples;Min_cycle;Max_cycle;Signal;HPM_P1;HPM_P2
2022/03/31 00:00:26;;;;;;;0.93;0.88;;;;;;;4.98;70.12;100416.97;5074565;27;96996;-36
2022/03/31 00:02:51;;;;;;;0.35;0.25;;;;;;;4.92;72.34;100407.38;5056087;27;96553;-35
2022/03/31 00:05:16;;;;;;;0.55;0.35;;;;;;;4.92;71.23;100407.38;5074416;27;96828;-36
2022/03/31 00:07:51;;;;;;;0.15;0.15;;;;;;;4.97;71.49;100425.97;5074670;27;97379;-36
2022/03/31 00:10:30;;;;;;;0.20;0.20;;;;;;;4.95;70.87;100422.47;5073290;27;97880;-36
2022/03/31 00:12:57;;;;;;;1.48;0.57;;;;;;;4.87;71.30;100430.88;5073790;27;96533;-36
2022/03/31 00:15:26;;;;;;;0.57;0.28;;;;;;;4.78;70.75;100432.16;5055761;27;96829;-36
2022/03/31 00:17:52;;;;;;;0.73;0.40;;;;;;;4.68;71.20;100423.63;5055438;27;100250;-36
2022/03/31 00:23:39;;;;;;;0.10;0.10;;;;;;;4.52;71.40;100419.03;5071668;27;96436;-36
2022/03/31 00:26:05;;;;;;;0.13;0.13;;;;;;;4.47;71.88;100422.75;5073066;27;103316;-36
2022/03/31 00:28:30;;;;;;;0.15;0.15;;;;;;;4.37;71.92;100405.34;5073753;27;99396;-36
2022/03/31 00:30:57;;;;;;;0.47;0.30;;;;;;;4.29;71.56;100414.63;5074252;27;97406;-36
2022/03/31 00:33:22;;;;;;;0.55;0.43;;;;;;;3.98;70.80;100406.09;5055484;27;96544;-36
2022/03/31 00:35:47;;;;;;;0.15;0.15;;;;;;;4.02;72.82;100420.22;5074145;27;96868;-36
2022/03/31 00:38:13;;;;;;;0.52;0.50;;;;;;;3.98;73.08;100408.78;5073379;27;97889;-36
2022/03/31 00:40:39;;;;;;;0.75;0.40;;;;;;;3.93;72.88;100426.84;5073604;27;97718;-36
2022/03/31 00:43:04;;;;;;;0.40;0.30;;;;;;;3.94;71.85;100423.22;5055383;27;96640;-36
2022/03/31 00:45:34;;;;;;;0.22;0.20;;;;;;;3.82;74.20;100419.25;5073658;27;96697;-36
2022/03/31 00:48:00;;;;;;;0.30;0.20;;;;;;;3.82;73.68;100403.16;5054692;27;100914;-36
2022/03/31 00:50:26;;;;;;;0.10;0.10;;;;;;;3.97;73.08;100416.88;5055013;27;101155;-35
2022/03/31 00:52:53;;;;;;;1.40;0.35;;;;;;;4.04;73.42;100407.63;5055249;27;96526;-36
2022/03/31 00:55:18;;;;;;;0.25;0.17;;;;;;;4.00;72.44;100400.66;5055542;27;96766;-36
2022/03/31 00:57:45;;;;;;;0.50;0.32;;;;;;;4.03;71.87;100411.28;5073427;27;97890;-36
2022/03/31 01:00:14;;;;;;;0.20;0.17;;;;;;;3.82;71.91;100404.97;5055038;27;101456;-36
2022/03/31 01:02:43;;;;;;;0.17;0.17;;;;;;;3.73;73.24;100408.91;5072848;27;96643;-36
2022/03/31 01:05:09;;;;;;;0.30;0.20;;;;;;;3.73;74.53;100397.31;5054736;27;97400;-35
2022/03/31 01:07:37;;;;;;;0.10;0.10;;;;;;;3.79;72.51;100405.09;5054689;27;101504;-36
2022/03/31 01:10:04;;;;;;;0.00;0.00;;;;;;;3.80;73.78;100399.69;5072869;27;97778;-35
2022/03/31 01:12:30;;;;;;;0.00;0.00;;;;;;;3.71;72.96;100388.47;5038216;27;96566;-36
2022/03/31 01:15:31;;;;;;;0.28;0.28;;;;;;;3.78;73.71;100395.31;5073434;27;96709;-36
2022/03/31 01:17:56;;;;;;;0.32;0.32;;;;;;;3.66;74.10;100393.16;5010225;28;98247;-36
2022/03/31 01:20:21;;;;;;;0.43;0.43;;;;;;;3.57;74.26;100389.88;5059802;27;97805;-36
2022/03/31 01:22:50;;;;;;;0.85;0.73;;;;;;;3.54;74.63;100373.94;5073558;27;96508;-36
2022/03/31 01:25:16;;;;;;;0.17;0.13;;;;;;;3.68;73.84;100380.56;5054752;27;96665;-36
2022/03/31 01:27:43;;;;;;;1.05;0.50;;;;;;;3.64;73.88;100377.13;5072599;27;97430;-35
2022/03/31 01:30:13;;;;;;;3.53;0.52;;;;;;;3.60;73.71;100380.88;5054384;27;101570;-35
2022/03/31 01:32:39;;;;;;;0.40;0.40;;;;;;;3.44;74.02;100369.91;5072995;27;96593;-36
2022/03/31 01:35:06;;;;;;;0.05;0.05;;;;;;;3.43;75.21;100372.63;5072876;27;96915;-36
2022/03/31 01:37:31;;;;;;;0.17;0.17;;;;;;;3.37;74.44;100371.94;5053334;27;101026;-36
2022/03/31 01:39:57;;;;;;;0.30;0.30;;;;;;;3.24;75.02;100368.00;5072976;27;97787;-36
2022/03/31 01:42:22;;;;;;;0.17;0.15;;;;;;;3.16;74.59;100362.94;5073109;27;96602;-36
2022/03/31 01:44:52;;;;;;;1.65;0.10;;;;;;;3.27;76.08;100369.72;5073451;27;96743;-36
2022/03/31 01:47:17;;;;;;;0.32;0.30;;;;;;;3.23;75.27;100349.34;5053988;27;100857;-36
2022/03/31 01:49:43;;;;;;;0.25;0.05;;;;;;;3.21;74.58;100368.13;5072928;27;97492;-35
2022/03/31 01:52:09;;;;;;;0.00;0.00;;;;;;;3.22;75.04;100344.91;5053779;27;96998;-36
2022/03/31 01:54:34;;;;;;;0.08;0.08;;;;;;;3.29;74.75;100354.44;5072809;27;96731;-36
2022/03/31 01:57:01;;;;;;;0.10;0.10;;;;;;;3.29;73.97;100358.00;5072600;27;98745;-36
2022/03/31 01:59:41;;;;;;;0.00;0.00;;;;;;;3.29;75.92;100354.44;5054093;27;101077;-36
2022/03/31 02:02:07;;;;;;;0.10;0.10;;;;;;;3.31;75.03;100363.28;5054291;27;96659;-36
2022/03/31 02:04:32;;;;;;;0.00;0.00;;;;;;;3.27;74.52;100361.69;5054127;27;96617;-36
2022/03/31 02:06:58;;;;;;;0.30;0.30;;;;;;;3.27;75.21;100359.00;5072249;27;99398;-36
2022/03/31 02:09:23;;;;;;;0.40;0.17;;;;;;;3.15;74.47;100355.00;5072982;27;97771;-35
2022/03/31 02:11:49;;;;;;;0.28;0.25;;;;;;;3.19;74.98;100362.84;5072386;27;96610;-36
2022/03/31 02:14:14;;;;;;;0.00;0.00;;;;;;;3.08;75.39;100349.00;5072625;27;97204;-36
2022/03/31 02:16:40;;;;;;;0.40;0.20;;;;;;;3.10;75.91;100359.63;5071873;27;97425;-36
2022/03/31 02:19:06;;;;;;;0.00;0.00;;;;;;;3.09;74.86;100348.06;5072524;27;97874;-36
2022/03/31 02:21:32;;;;;;;0.08;0.08;;;;;;;3.03;74.90;100352.78;5072522;27;96828;-36
2022/03/31 02:23:58;;;;;;;0.17;0.17;;;;;;;3.05;74.68;100361.63;5072340;27;96540;-36
2022/03/31 02:26:23;;;;;;;0.08;0.05;;;;;;;2.94;74.40;100360.25;5053868;27;100722;-36
2022/03/31 02:28:49;;;;;;;0.20;0.20;;;;;;;2.95;75.35;100374.47;5072356;27;97246;-36
2022/03/31 02:31:14;;;;;;;0.30;0.30;;;;;;;2.94;75.89;100362.03;5072187;27;96676;-35
2022/03/31 02:33:40;;;;;;;0.25;0.25;;;;;;;2.89;74.98;100364.03;5072637;27;96800;-36
2022/03/31 02:36:07;;;;;;;0.38;0.10;;;;;;;2.81;75.49;100353.59;5072340;27;97411;-35
2022/03/31 02:38:34;;;;;;;0.20;0.20;;;;;;;2.75;74.97;100348.50;5053558;27;101247;-36
2022/03/31 02:40:59;;;;;;;0.20;0.20;;;;;;;2.77;76.05;100341.28;5053202;27;96730;-36
2022/03/31 02:43:25;;;;;;;0.20;0.10;;;;;;;2.76;76.33;100328.84;5072470;27;96777;-36
2022/03/31 02:45:50;;;;;;;0.38;0.30;;;;;;;2.76;75.62;100324.38;5071918;27;97860;-35
2022/03/31 02:48:15;;;;;;;0.40;0.13;;;;;;;2.78;76.00;100342.16;5072781;27;97827;-36
2022/03/31 02:50:41;;;;;;;0.65;0.40;;;;;;;2.74;76.07;100328.00;5074547;27;122507;-35
2022/03/31 02:55:50;;;;;;;0.10;0.10;;;;;;;2.74;76.58;100334.25;5075721;27;96961;-36
2022/03/31 02:58:15;;;;;;;0.10;0.10;;;;;;;2.81;76.47;100332.19;5075249;27;105445;-35
2022/03/31 03:00:40;;;;;;;0.30;0.15;;;;;;;2.85;75.68;100328.47;5075630;27;96632;-35
2022/03/31 03:03:08;;;;;;;0.20;0.20;;;;;;;2.72;76.09;100316.53;5074854;27;112517;-35
2022/03/31 03:05:34;;;;;;;1.10;0.73;;;;;;;2.83;76.25;100321.44;5074537;27;98810;-36
2022/03/31 03:08:00;;;;;;;0.45;0.38;;;;;;;2.87;75.48;100331.13;5056688;27;101018;-36
2022/03/31 03:10:25;;;;;;;0.20;0.20;;;;;;;2.75;76.36;100319.94;5074872;27;96541;-35
2022/03/31 03:12:51;;;;;;;0.25;0.15;;;;;;;2.94;76.18;100332.63;5075187;27;96846;-35
2022/03/31 03:15:17;;;;;;;0.08;0.03;;;;;;;2.97;76.90;100332.50;5075177;27;97482;-35
2022/03/31 03:17:45;;;;;;;0.68;0.50;;;;;;;2.89;75.63;100319.41;5056664;27;100923;-36
2022/03/31 03:20:13;;;;;;;0.47;0.35;;;;;;;2.88;76.81;100317.66;5056644;27;96717;-36
2022/03/31 03:22:41;;;;;;;0.57;0.40;;;;;;;2.95;75.39;100329.00;5057038;27;96799;-36
2022/03/31 03:25:07;;;;;;;0.20;0.20;;;;;;;2.87;75.47;100315.94;5056391;27;100813;-36
2022/03/31 03:27:32;;;;;;;0.38;0.38;;;;;;;2.94;76.67;100324.59;5056295;27;101809;-36
2022/03/31 03:29:57;;;;;;;0.10;0.10;;;;;;;3.00;75.40;100327.00;5074158;27;105852;-35
2022/03/31 03:32:23;;;;;;;0.10;0.10;;;;;;;2.96;75.36;100315.59;5074789;27;97062;-36
2022/03/31 03:34:49;;;;;;;0.50;0.50;;;;;;;3.01;76.94;100327.91;5074210;27;117009;-36
2022/03/31 03:37:14;;;;;;;0.50;0.25;;;;;;;2.98;75.76;100324.41;5074597;27;99825;-35
2022/03/31 03:39:39;;;;;;;0.32;0.20;;;;;;;2.96;75.70;100323.59;5075363;27;96632;-36
2022/03/31 03:42:05;;;;;;;1.50;0.55;;;;;;;2.94;78.24;100311.22;5074667;27;97400;-36
2022/03/31 03:44:30;;;;;;;0.22;0.20;;;;;;;3.00;76.65;100318.13;5056135;27;100784;-36
2022/03/31 03:46:56;;;;;;;0.13;0.13;;;;;;;3.07;76.08;100319.63;5074670;27;105457;-36
2022/03/31 03:49:47;;;;;;;0.17;0.10;;;;;;;3.19;76.45;100332.53;5074616;27;96821;-36
2022/03/31 03:52:12;;;;;;;0.20;0.20;;;;;;;3.05;76.79;100316.13;5074669;27;96736;-35
2022/03/31 03:54:37;;;;;;;0.28;0.20;;;;;;;3.00;76.57;100316.31;5074029;27;98055;-36
2022/03/31 03:57:03;;;;;;;0.60;0.40;;;;;;;3.09;76.17;100331.16;5073388;27;124793;-36
2022/03/31 03:59:28;;;;;;;0.80;0.52;;;;;;;3.02;77.21;100329.66;5073977;27;96568;-36
2022/03/31 04:01:54;;;;;;;0.40;0.32;;;;;;;2.96;77.07;100322.75;5074352;27;96726;-35
2022/03/31 04:04:19;;;;;;;0.50;0.35;;;;;;;2.97;77.05;100322.66;5074231;27;97821;-36
2022/03/31 04:06:44;;;;;;;0.17;0.15;;;;;;;3.03;75.86;100342.06;5073696;27;126754;-36
2022/03/31 04:09:09;;;;;;;0.25;0.22;;;;;;;2.97;76.68;100322.66;5074413;27;96961;-36
2022/03/31 04:11:35;;;;;;;0.60;0.60;;;;;;;3.05;77.19;100334.88;5073468;27;116859;-35
2022/03/31 04:14:00;;;;;;;1.05;0.55;;;;;;;3.01;76.02;100328.78;5073468;27;122117;-36
2022/03/31 04:16:25;;;;;;;0.85;0.50;;;;;;;3.01;76.33;100336.81;5073213;27;125346;-35
2022/03/31 04:18:51;;;;;;;0.98;0.68;;;;;;;3.01;76.45;100334.13;5073934;27;96844;-36
2022/03/31 04:21:16;;;;;;;0.57;0.40;;;;;;;2.88;76.44;100312.31;5055475;27;96910;-35
2022/03/31 04:23:41;;;;;;;0.88;0.52;;;;;;;2.92;77.08;100330.00;5055299;27;99335;-36
2022/03/31 04:26:07;;;;;;;1.15;0.75;;;;;;;2.92;76.58;100330.00;5073686;27;99157;-36
2022/03/31 04:28:32;;;;;;;0.82;0.70;;;;;;;2.81;76.27;100305.44;5074217;27;96477;-36
2022/03/31 04:30:58;;;;;;;2.90;0.45;;;;;;;2.88;77.55;100309.63;5073863;27;96796;-36
2022/03/31 04:33:23;;;;;;;0.22;0.22;;;;;;;2.88;78.08;100316.78;5073871;27;98389;-35
2022/03/31 04:35:48;;;;;;;0.63;0.52;;;;;;;2.95;77.28;100326.31;5074127;27;99353;-35
2022/03/31 04:38:14;;;;;;;0.40;0.30;;;;;;;2.89;77.05;100311.41;5055299;27;96785;-36
2022/03/31 04:40:39;;;;;;;0.25;0.25;;;;;;;2.92;77.26;100318.44;5055799;27;96790;-35
2022/03/31 04:43:05;;;;;;;1.10;0.93;;;;;;;2.91;76.03;100327.41;5072363;27;126772;-35
2022/03/31 04:45:30;;;;;;;0.90;0.52;;;;;;;2.91;77.44;100333.63;5073662;27;97798;-35
2022/03/31 04:47:55;;;;;;;0.20;0.20;;;;;;;2.86;76.66;100311.53;5072686;27;119284;-35
2022/03/31 04:50:21;;;;;;;1.85;0.70;;;;;;;2.89;76.69;100327.44;5073624;27;96758;-35
2022/03/31 04:52:49;;;;;;;0.05;0.05;;;;;;;2.83;76.60;100308.09;5073610;27;97905;-35
2022/03/31 04:55:14;;;;;;;0.20;0.15;;;;;;;2.86;76.50;100308.84;5073400;27;98285;-35
2022/03/31 04:57:40;;;;;;;1.20;0.73;;;;;;;2.82;76.12;100315.25;5073740;27;96528;-35
2022/03/31 05:00:06;;;;;;;8.55;0.57;;;;;;;2.80;76.64;100314.44;5074013;27;96695;-35
2022/03/31 05:02:32;;;;;;;0.30;0.30;;;;;;;2.75;78.20;100311.06;5054802;27;102105;-35
2022/03/31 05:04:57;;;;;;;1.65;0.63;;;;;;;2.79;75.69;100296.66;5073241;27;97792;-35
2022/03/31 05:07:22;;;;;;;0.50;0.40;;;;;;;2.72;76.44;100298.69;5071837;27;123047;-35
2022/03/31 05:09:48;;;;;;;0.20;0.20;;;;;;;2.78;78.14;100302.91;5073305;27;96912;-35
2022/03/31 05:12:13;;;;;;;0.30;0.28;;;;;;;2.82;77.06;100314.38;5054520;27;100750;-35
2022/03/31 05:14:39;;;;;;;0.35;0.35;;;;;;;2.84;76.76;100304.50;5073029;27;99164;-35
2022/03/31 05:17:06;;;;;;;0.20;0.20;;;;;;;2.86;77.94;100308.84;5073231;27;96689;-35
2022/03/31 05:19:32;;;;;;;0.10;0.10;;;;;;;2.83;77.14;100300.91;5054790;27;96759;-35
2022/03/31 05:21:57;;;;;;;0.10;0.10;;;;;;;2.84;76.97;100294.66;5072811;27;99054;-36
2022/03/31 05:24:23;;;;;;;1.45;0.45;;;;;;;2.84;75.95;100301.81;5073372;27;99270;-35
2022/03/31 05:26:52;;;;;;;0.57;0.32;;;;;;;2.89;77.15;100300.69;5073371;27;96587;-35
2022/03/31 05:29:18;;;;;;;0.28;0.28;;;;;;;2.90;76.96;100305.09;5072999;27;96765;-35
2022/03/31 05:31:43;;;;;;;0.32;0.32;;;;;;;2.89;77.04;100303.38;5054017;27;100800;-35
2022/03/31 05:34:08;;;;;;;0.13;0.13;;;;;;;2.92;77.38;100303.25;5072598;27;113478;-35
2022/03/31 05:36:34;;;;;;;0.52;0.43;;;;;;;2.96;77.48;100294.19;5072362;27;99946;-35
2022/03/31 05:38:59;;;;;;;0.30;0.30;;;;;;;3.06;76.84;100304.53;5073031;27;96733;-35
2022/03/31 05:41:25;;;;;;;0.75;0.55;;;;;;;3.08;77.73;100300.84;5054406;27;99093;-36
2022/03/31 05:43:50;;;;;;;0.38;0.20;;;;;;;3.03;78.29;100300.16;5072868;27;97892;-35
2022/03/31 05:46:15;;;;;;;1.05;0.15;;;;;;;3.06;77.93;100300.03;5072866;27;96661;-35
2022/03/31 05:48:41;;;;;;;0.22;0.22;;;;;;;3.06;77.40;100291.16;5073011;27;96769;-36
2022/03/31 05:51:07;;;;;;;0.98;0.60;;;;;;;3.21;77.17;100303.91;5072140;27;99226;-36
2022/03/31 05:53:32;;;;;;;0.10;0.10;;;;;;;3.23;77.43;100302.03;5072715;27;97819;-35
2022/03/31 05:55:57;;;;;;;0.38;0.22;;;;;;;3.11;77.48;100289.16;5072464;27;96465;-35
2022/03/31 05:58:23;;;;;;;0.25;0.20;;;;;;;3.15;78.26;100293.47;5072294;27;109175;-35
2022/03/31 06:00:48;;;;;;;0.75;0.40;;;;;;;3.21;77.15;100303.03;5072321;27;111530;-35
2022/03/31 06:03:15;;;;;;;0.08;0.08;;;;;;;3.19;77.21;100301.31;5072494;27;99788;-36
2022/03/31 06:05:40;;;;;;;0.30;0.30;;;;;;;3.25;77.42;100294.81;5072161;27;96855;-35
2022/03/31 06:08:06;;;;;;;1.08;0.45;;;;;;;3.18;77.21;100288.84;5071459;27;122761;-35
2022/03/31 06:10:32;;;;;;;0.77;0.30;;;;;;;3.21;77.51;100286.97;5053342;27;100788;-35
2022/03/31 06:12:57;;;;;;;0.28;0.28;;;;;;;3.22;77.55;100294.06;5072174;27;118536;-35
2022/03/31 06:15:23;;;;;;;0.57;0.45;;;;;;;3.27;77.19;100292.97;5071725;27;119909;-36
2022/03/31 06:17:48;;;;;;;0.52;0.52;;;;;;;3.23;76.86;100283.31;5072479;27;96746;-35
2022/03/31 06:20:14;;;;;;;0.22;0.20;;;;;;;3.27;76.99;100290.28;5070439;27;126538;-35
2022/03/31 06:22:39;;;;;;;0.88;0.52;;;;;;;3.36;76.66;100303.31;5072039;27;99563;-35
2022/03/31 06:25:06;;;;;;;0.00;0.00;;;;;;;3.33;77.00;100289.16;5076038;27;96609;-35
2022/03/31 06:27:33;;;;;;;0.52;0.52;;;;;;;3.35;77.30;100288.16;5057396;27;96956;-35
2022/03/31 06:29:58;;;;;;;0.38;0.30;;;;;;;3.32;77.23;100290.97;5075642;27;98981;-35
2022/03/31 06:32:24;;;;;;;1.25;0.30;;;;;;;3.36;76.91;100297.94;5074710;27;125513;-35
2022/03/31 06:34:49;;;;;;;0.95;0.60;;;;;;;3.40;76.27;100299.53;5075999;27;96600;-35
2022/03/31 06:37:15;;;;;;;1.75;0.73;;;;;;;3.42;76.09;100290.59;5076020;27;97727;-35
2022/03/31 06:39:40;;;;;;;0.52;0.38;;;;;;;3.36;75.32;100289.91;5075825;27;97994;-35
2022/03/31 06:42:06;;;;;;;0.30;0.30;;;;;;;3.35;75.64;100293.50;5075050;27;116935;-36
2022/03/31 06:44:32;;;;;;;0.00;0.00;;;;;;;3.34;76.25;100302.50;5074983;27;96578;-36
2022/03/31 06:46:58;;;;;;;0.10;0.10;;;;;;;3.38;75.87;100300.53;5075643;27;96826;-35
2022/03/31 06:49:34;;;;;;;0.00;0.00;;;;;;;3.42;75.74;100312.00;5075350;27;98060;-35
2022/03/31 06:51:59;;;;;;;0.00;0.00;;;;;;;3.46;76.54;100308.28;5075489;27;97780;-35
2022/03/31 06:54:24;;;;;;;0.20;0.10;;;;;;;3.40;76.46;100294.19;5075306;27;98282;-35
2022/03/31 06:56:51;;;;;;;0.68;0.28;;;;;;;3.48;76.19;100309.06;5074739;27;121266;-35
2022/03/31 06:59:17;;;;;;;2.05;0.93;;;;;;;3.46;76.48;100306.47;5056870;27;100912;-35
2022/03/31 07:01:42;;;;;;;0.52;0.45;;;;;;;3.48;75.79;100291.22;5057299;27;100613;-35
2022/03/31 07:04:08;;;;;;;0.43;0.20;;;;;;;3.50;76.36;100289.31;5075306;27;96765;-35
2022/03/31 07:06:34;;;;;;;0.08;0.08;;;;;;;3.51;76.19;100291.09;5075617;27;97121;-35
2022/03/31 07:08:59;;;;;;;0.22;0.22;;;;;;;3.58;75.96;100294.38;5074667;27;99369;-35
2022/03/31 07:11:25;;;;;;;0.60;0.28;;;;;;;3.55;76.13;100287.34;5074813;27;97648;-35
2022/03/31 07:13:50;;;;;;;0.88;0.57;;;;;;;3.61;75.83;100296.91;5056805;27;96705;-35
2022/03/31 07:16:16;;;;;;;0.65;0.47;;;;;;;3.71;76.23;100308.97;5075091;27;96486;-35
2022/03/31 07:18:42;;;;;;;2.75;1.55;;;;;;;3.64;75.08;100288.75;5056374;27;101437;-35
2022/03/31 07:21:08;;;;;;;0.85;0.82;;;;;;;3.71;76.45;100303.63;5056562;27;100923;-35
2022/03/31 07:23:33;;;;;;;4.85;1.38;;;;;;;3.70;76.51;100303.72;5075171;27;96662;-35
2022/03/31 07:25:59;;;;;;;8.93;1.13;;;;;;;3.68;76.90;100309.13;5075562;27;96763;-35
2022/03/31 07:28:24;;;;;;;1.70;1.25;;;;;;;3.66;76.85;100302.09;5074963;27;97897;-36
2022/03/31 07:30:50;;;;;;;1.85;1.10;;;;;;;3.57;76.53;100304.19;5074761;27;97670;-35
2022/03/31 07:33:19;;;;;;;1.80;0.82;;;;;;;3.63;77.10;100313.81;5055629;27;96936;-35
2022/03/31 07:35:47;;;;;;;0.98;0.75;;;;;;;3.66;78.01;100307.44;5054951;27;96923;-35
2022/03/31 07:38:13;;;;;;;0.63;0.63;;;;;;;3.62;75.87;100295.97;5056036;27;100920;-35
2022/03/31 07:40:40;;;;;;;0.90;0.73;;;;;;;3.63;76.71;100288.84;5074803;27;97366;-35
2022/03/31 07:43:06;;;;;;;1.17;1.05;;;;;;;3.67;75.77;100291.31;5060091;27;96826;-35
2022/03/31 07:45:36;;;;;;;1.42;0.98;;;;;;;3.76;75.92;100292.72;5095133;27;96803;-35
2022/03/31 07:48:06;;;;;;;2.25;0.73;;;;;;;3.79;75.72;100306.88;5094562;27;97439;-36
2022/03/31 07:50:31;;;;;;;0.70;0.65;;;;;;;3.71;76.23;100284.00;5095287;27;99300;-35
2022/03/31 07:52:57;;;;;;;1.23;0.98;;;;;;;3.86;76.22;100290.50;5095291;27;96445;-36
2022/03/31 07:55:24;;;;;;;0.85;0.50;;;;;;;3.85;76.34;100289.66;5076703;27;96939;-35
2022/03/31 07:57:50;;;;;;;0.98;0.57;;;;;;;3.89;75.47;100290.41;5059255;27;99086;-35
2022/03/31 08:00:16;;;;;;;1.63;1.02;;;;;;;3.89;75.96;100295.75;5076127;27;100839;-35
2022/03/31 08:02:43;;;;;;;0.70;0.45;;;;;;;3.87;75.46;100286.91;5076517;27;96541;-35
2022/03/31 08:05:09;;;;;;;0.52;0.52;;;;;;;3.82;75.98;100285.31;5076260;27;96901;-35
2022/03/31 08:07:38;;;;;;;0.55;0.55;;;;;;;3.83;75.32;100287.03;5076170;27;100843;-35
2022/03/31 08:10:05;;;;;;;16.52;0.43;;;;;;;3.85;75.27;100280.75;5075752;27;100248;-36
2022/03/31 08:12:31;;;;;;;1.50;0.95;;;;;;;3.87;76.08;100281.56;5076244;27;97195;-35
2022/03/31 08:14:56;;;;;;;0.70;0.68;;;;;;;3.97;75.29;100293.63;5095102;27;96746;-36
2022/03/31 08:17:23;;;;;;;2.70;0.85;;;;;;;4.03;74.80;100301.41;5094918;27;97951;-35
2022/03/31 08:19:48;;;;;;;0.77;0.70;;;;;;;4.04;75.21;100284.38;5094429;27;99511;-35
2022/03/31 08:22:13;;;;;;;1.02;0.77;;;;;;;4.04;75.11;100279.00;5093440;27;122710;-35
2022/03/31 08:24:39;;;;;;;0.68;0.60;;;;;;;4.05;75.37;100275.38;5094948;27;96743;-35
2022/03/31 08:27:05;;;;;;;0.52;0.52;;;;;;;4.10;75.02;100278.75;5094598;27;97548;-35
2022/03/31 08:29:31;;;;;;;0.85;0.70;;;;;;;4.13;75.55;100275.06;5075768;27;99080;-35
2022/03/31 08:31:57;;;;;;;0.30;0.30;;;;;;;4.22;74.47;100278.19;5094397;27;96639;-36
2022/03/31 08:34:23;;;;;;;0.95;0.73;;;;;;;4.30;74.63;100282.34;5094644;27;96425;-35
2022/03/31 08:36:48;;;;;;;1.80;1.00;;;;;;;4.30;74.20;100293.06;5094200;27;99372;-35
2022/03/31 08:39:14;;;;;;;1.08;0.80;;;;;;;4.25;75.12;100279.88;5094883;27;97826;-35
2022/03/31 08:41:44;;;;;;;0.98;0.68;;;;;;;4.25;75.20;100282.56;5075926;27;96707;-35
2022/03/31 08:44:12;;;;;;;10.63;0.85;;;;;;;4.25;74.38;100280.75;5094333;27;97035;-35
2022/03/31 08:46:37;;;;;;;1.95;0.90;;;;;;;4.29;74.67;100284.16;5074684;27;100858;-35
2022/03/31 08:49:03;;;;;;;1.88;1.20;;;;;;;4.35;75.32;100274.97;5093820;27;99673;-36
2022/03/31 08:51:29;;;;;;;1.52;1.02;;;;;;;4.45;74.90;100276.28;5075673;27;96602;-35
2022/03/31 08:53:54;;;;;;;1.42;1.17;;;;;;;4.53;74.04;100266.09;5094155;27;96798;-35
2022/03/31 08:56:20;;;;;;;1.10;0.98;;;;;;;4.71;74.16;100271.53;5093993;27;99234;-35
2022/03/31 08:58:47;;;;;;;0.63;0.52;;;;;;;4.82;73.16;100283.50;5094214;27;97842;-35
2022/03/31 09:01:16;;;;;;;0.93;0.60;;;;;;;4.79;73.82;100267.56;5075631;27;96917;-35
2022/03/31 09:03:42;;;;;;;1.73;0.95;;;;;;;4.87;73.21;100280.63;5075843;27;96759;-35
2022/03/31 09:06:09;;;;;;;2.38;1.30;;;;;;;4.88;72.90;100279.66;5075325;27;98180;-35
2022/03/31 09:08:35;;;;;;;1.45;0.98;;;;;;;4.92;72.69;100273.22;5075373;27;100817;-35
2022/03/31 09:11:03;;;;;;;1.65;1.10;;;;;;;4.96;73.60;100269.44;5092540;27;96919;-35
2022/03/31 09:13:31;;;;;;;1.38;0.95;;;;;;;4.99;73.87;100268.44;5093705;27;96812;-36
2022/03/31 09:16:02;;;;;;;0.08;0.05;;;;;;;5.00;73.56;100281.75;5093543;27;99338;-35
2022/03/31 09:18:30;;;;;;;3.67;1.13;;;;;;;4.97;72.89;100264.94;5075083;27;100785;-35
2022/03/31 09:20:57;;;;;;;2.05;0.95;;;;;;;5.01;72.80;100270.09;5075190;27;96639;-36
2022/03/31 09:23:28;;;;;;;0.68;0.40;;;;;;;4.94;72.32;100260.59;5075399;27;96758;-35
2022/03/31 09:26:06;;;;;;;1.08;0.52;;;;;;;4.96;72.14;100266.75;5074858;27;101273;-35
2022/03/31 09:28:32;;;;;;;0.50;0.45;;;;;;;4.97;72.37;100279.22;5094001;27;99275;-35
2022/03/31 09:30:57;;;;;;;1.67;1.08;;;;;;;4.98;72.35;100267.56;5093797;27;96568;-35
2022/03/31 09:33:37;;;;;;;1.15;1.02;;;;;;;5.05;72.70;100273.47;5094151;27;96361;-35
2022/03/31 09:36:06;;;;;;;1.17;0.65;;;;;;;5.07;72.74;100276.97;5093042;27;99145;-35
2022/03/31 09:38:36;;;;;;;0.52;0.52;;;;;;;5.05;72.34;100276.16;5093364;27;99040;-36
2022/03/31 09:41:18;;;;;;;1.90;0.90;;;;;;;5.01;72.89;100290.69;5074882;27;96561;-35
2022/03/31 09:43:44;;;;;;;0.82;0.73;;;;;;;4.92;72.21;100277.72;5074996;27;96738;-35
2022/03/31 09:46:34;;;;;;;1.13;1.02;;;;;;;4.96;72.86;100285.53;5074757;27;101003;-35
2022/03/31 09:49:11;;;;;;;2.03;1.27;;;;;;;4.84;72.77;100264.66;5074448;27;101011;-35
2022/03/31 09:51:37;;;;;;;0.88;0.73;;;;;;;4.77;72.85;100256.03;5074842;27;96655;-36
2022/03/31 09:54:03;;;;;;;0.45;0.45;;;;;;;4.86;72.51;100268.13;5093624;27;96910;-36
2022/03/31 09:56:33;;;;;;;1.27;0.73;;;;;;;4.90;73.25;100270.59;5074759;27;99208;-35
2022/03/31 09:59:01;;;;;;;1.50;1.05;;;;;;;4.92;72.66;100272.34;5076481;27;100804;-35
2022/03/31 10:01:27;;;;;;;0.95;0.82;;;;;;;4.88;72.80;100263.56;5077914;27;96983;-35
2022/03/31 10:03:54;;;;;;;1.00;0.73;;;;;;;4.87;72.71;100253.78;5096969;27;96474;-35
2022/03/31 10:06:20;;;;;;;1.77;1.38;;;;;;;5.00;72.52;100260.28;5096647;27;99847;-36
2022/03/31 10:08:47;;;;;;;3.58;1.17;;;;;;;5.08;72.20;100266.16;5096544;27;99273;-35
2022/03/31 10:11:13;;;;;;;0.80;0.63;;;;;;;5.06;72.76;100257.31;5077460;27;96539;-35
2022/03/31 10:14:10;;;;;;;0.63;0.55;;;;;;;5.18;72.63;100253.16;5078069;27;96768;-36
2022/03/31 10:16:50;;;;;;;1.98;1.17;;;;;;;5.25;72.61;100253.75;5060634;27;98005;-35
2022/03/31 10:19:26;;;;;;;0.63;0.63;;;;;;;5.30;72.34;100262.44;5096993;27;99282;-36
2022/03/31 10:22:00;;;;;;;0.98;0.73;;;;;;;5.25;72.11;100243.00;5077834;27;97704;-35
2022/03/31 10:24:41;;;;;;;1.05;0.90;;;;;;;5.30;71.89;100262.44;5078052;27;96819;-35
2022/03/31 10:27:09;;;;;;;0.87;0.77;;;;;;;5.29;71.38;100255.31;5077467;27;100700;-35
2022/03/31 10:29:40;;;;;;;1.10;0.38;;;;;;;5.24;71.13;100258.25;5077938;27;99995;-35
2022/03/31 10:32:17;;;;;;;0.65;0.65;;;;;;;5.18;71.53;100255.84;5077856;27;96628;-35
2022/03/31 10:34:47;;;;;;;0.75;0.75;;;;;;;5.10;71.41;100248.19;5078015;27;96703;-36
2022/03/31 10:37:12;;;;;;;0.57;0.57;;;;;;;5.03;72.06;100244.06;5077729;27;100652;-36
2022/03/31 10:39:37;;;;;;;0.77;0.77;;;;;;;5.11;71.70;100254.41;5096194;27;99031;-35
2022/03/31 10:42:05;;;;;;;26.50;1.35;;;;;;;5.10;71.92;100250.88;5096268;27;96448;-35
2022/03/31 10:44:31;;;;;;;1.00;0.57;;;;;;;5.00;71.93;100249.53;5096797;27;96744;-35
2022/03/31 10:47:01;;;;;;;0.57;0.57;;;;;;;5.03;71.91;100254.78;5095898;27;99212;-35
2022/03/31 10:49:27;;;;;;;1.08;0.57;;;;;;;5.02;71.99;100244.97;5095545;27;99338;-35
2022/03/31 10:51:53;;;;;;;0.80;0.60;;;;;;;5.13;72.05;100246.28;5077123;27;97040;-35
2022/03/31 10:54:30;;;;;;;0.32;0.32;;;;;;;5.17;71.81;100237.13;5096438;27;96725;-35
2022/03/31 10:57:13;;;;;;;0.35;0.30;;;;;;;5.28;71.67;100240.16;5077316;27;100795;-35
2022/03/31 10:59:39;;;;;;;0.77;0.60;;;;;;;5.29;71.36;100233.81;5077310;27;98922;-35
2022/03/31 11:02:13;;;;;;;0.45;0.45;;;;;;;5.35;71.11;100238.03;5077369;27;96635;-36
2022/03/31 11:04:57;;;;;;;0.80;0.68;;;;;;;5.49;70.96;100241.75;5095940;27;96694;-35
2022/03/31 11:07:25;;;;;;;1.83;1.27;;;;;;;5.62;70.75;100238.44;5078167;27;98012;-35
2022/03/31 11:10:02;;;;;;;0.77;0.60;;;;;;;5.71;70.68;100235.31;5076769;27;101606;-35
2022/03/31 11:12:29;;;;;;;0.93;0.63;;;;;;;5.72;70.04;100228.97;5077205;27;98131;-36
2022/03/31 11:14:58;;;;;;;0.75;0.57;;;;;;;5.68;69.87;100222.91;5077344;27;96868;-36
2022/03/31 11:17:24;;;;;;;1.13;0.60;;;;;;;5.70;70.27;100220.13;5076492;27;100992;-35
2022/03/31 11:19:50;;;;;;;2.05;1.27;;;;;;;5.73;70.21;100220.84;5077047;27;100915;-35
2022/03/31 11:22:34;;;;;;;1.90;1.40;;;;;;;5.75;69.98;100223.47;5095533;27;96455;-36
2022/03/31 11:25:10;;;;;;;1.38;0.85;;;;;;;5.76;70.49;100227.88;5096114;27;96791;-35
2022/03/31 11:27:38;;;;;;;0.88;0.70;;;;;;;5.79;70.02;100216.94;5095520;27;97935;-35
2022/03/31 11:30:09;;;;;;;1.27;1.02;;;;;;;5.80;69.92;100220.53;5076732;27;100683;-35
2022/03/31 11:32:36;;;;;;;1.58;1.20;;;;;;;5.78;69.91;100225.13;5095724;27;96514;-35
2022/03/31 11:35:04;;;;;;;1.15;0.75;;;;;;;5.78;70.09;100214.38;5077391;27;96849;-35
2022/03/31 11:37:29;;;;;;;1.60;1.20;;;;;;;5.70;70.27;100204.03;5076837;27;100889;-35